ftp/pub/mcmurdo/arrivalheights/2008/March/080325.txt

Download

3/25/08
Time         Wind Dir   Wind Spd  Wind Gust     Hum In   Humidity    Temp In       Temp  Raw Barom   Tot Rain
                    °        kts        kts          %          %         °C         °C         mb         mm
0:00              112         21         25         23        100       20.1       -8.9     965.67       0.00
0:20              118         23         26         29        100       19.5       -8.6     966.01       0.00
0:40              106         21         30         33        100       19.7       -8.1     966.24       0.00
1:00               97         20         26         27        100       20.2       -8.4     966.62       0.00
1:20               89         18         38         23        100       20.7       -7.6     965.94       0.00
1:40              107         25         29         24        100       19.7       -8.0     965.91       0.00
2:00               98         28         30         29        100       19.6       -8.1     966.01       0.00
2:20              129         17         27         31        100       19.8       -7.2     966.48       0.00
2:40              102         18         20         33        100       20.0       -7.5     967.19       0.00
3:00              138         23         25         27        100       20.6       -7.4     966.85       0.00
3:20              100         30         36         23        100       20.0       -8.1     966.48       0.00
3:40               66         23         33         28        100       19.6       -8.2     966.24       0.00
4:00              123         30         36         31        100       19.7       -6.9     967.02       0.00
4:20               89         16         17         32        100       20.0       -6.7     967.57       0.00
4:40              100         25         33         27        100       20.6       -5.8     966.89       0.00
5:00              111         25         29         23        100       20.1       -5.7     966.79       0.00
5:20              106         43         43         28        100       19.6       -5.7     966.31       0.00
5:40              125         28         34         32        100       19.8       -6.3     967.36       0.00
6:00              131         32         40         28        100       20.4       -7.7     967.13       0.00
6:20              104         25         28         22        100       20.3       -8.2     967.70       0.00
6:40               92         25         30         26        100       19.4       -8.2     968.14       0.00
7:00               91         17         20         29        100       19.5       -8.0     968.28       0.00
7:20              106         29         30         31        100       19.7       -7.6     968.14       0.00
7:40               90         20         26         31        100       19.9       -7.9     968.45       0.00
8:00               80         23         24         32        100       20.1       -8.1     968.72       0.00
8:20              105         23         42         33        100       20.3       -9.2     968.89       0.00
8:40              137         30         30         24        100       20.6       -8.9     969.12       0.00
9:00              113         27         31         24        100       19.7       -8.7     969.16       0.00
9:20              119         30         35         30        100       19.7       -8.6     969.23       0.00
9:40              118         33         35         32        100       19.9       -8.6     969.56       0.00
10:00             130         35         35         28        100       20.4       -8.3     969.67       0.00
10:20             126         39         41         22        100       20.2       -8.5     969.26       0.00
10:40             136         41         50         26        100       19.4       -8.7     970.11       0.00
11:00             115         36         42         31        100       19.6       -9.3     970.72       0.00
11:20              50         18         20         31        100       19.8      -11.0     971.60       0.00
11:40              66         19         26         32        100       20.0       -9.9     970.92       0.00
12:00              58         13         18         32        100       20.2      -10.7     971.22       0.00
12:20              48         22         23         32        100       20.3       -9.2     971.26       0.00
12:40              39         19         22         28        100       20.6      -10.3     971.32       0.00
13:00              50         19         23         21        100       20.3       -8.5     970.95       0.00
13:20              48         18         24         27        100       19.7       -8.1     971.56       0.00
13:40              53         13         17         30        100       19.8       -8.2     971.12       0.00
14:00              76         25         27         30        100       19.9       -6.4     970.78       0.00
14:20              63         12         19         31        100       20.1       -6.1     971.39       0.00
14:40              55         12         14         31        100       20.4       -5.8     972.14       0.00
15:00              70         17         18         23        100       20.5       -4.7     971.60       0.00
15:20              77         14         17         26        100       19.7       -5.8     972.27       0.00
15:40              88         13         18         30        100       19.8       -6.7     972.34       0.00
16:00             107         20         21         32        100       20.1       -6.4     972.71       0.00
16:20             124         16         21         26        100       20.6       -6.7     972.75       0.00
16:40             138         14         22         23        100       19.7       -5.4     972.95       0.00
17:00             139         20         22         30        100       19.7       -5.4     972.92       0.00
17:20             118         17         19         30        100       20.2      -10.3     973.22       0.00
17:40             117         14         18         23        100       20.4      -10.2     973.29       0.00
18:00              88         13         17         26        100       19.6       -9.6     973.46       0.00
18:20              95         17         18         30        100       19.8      -10.2     973.73       0.00
18:40              96         12         15         32        100       20.1      -11.7     973.93       0.00
19:00             106         16         17         28        100       20.6      -12.4     973.73       0.00
19:20             115         19         20         22        100       19.9      -12.4     973.66       0.00
19:40             108         16         18         29        100       19.7      -12.1     974.14       0.00
20:00             111         18         22         32        100       20.1      -12.4     974.10       0.00
20:20             109         18         20         27        100       20.6      -12.5     974.27       0.00
20:40             109         16         16         22        100       19.8      -11.8     974.54       0.00
21:00              99         15         15         29        100       19.8      -11.7     974.75       0.00
21:20              44         19         19         31        100       20.1      -14.0     974.81       0.00
21:40              49         17         23         31        100       20.2      -13.1     974.64       0.00
22:00              48         21         23         31        100       20.3      -12.3     974.44       0.00
22:20              51         19         22         31        100       20.4      -11.8     974.47       0.00
22:40              51         15         21         31        100       20.4      -12.3     974.27       0.00
23:00              51         19         23         31        100       20.5      -11.9     974.10       0.00
23:20              51         15         16         31        100       20.6      -12.6     973.93       0.00
23:40              50         18         23         31        100       20.6      -12.1     974.07       0.00